sensor_id;sensor_type;location;lat;lon;timestamp;P1;durP1;ratioP1;P2;durP2;ratioP2
65656;SDS011;57397;50.096;14.404;2022-12-07T00:01:11;1.77;;;1.35;;
65656;SDS011;57397;50.096;14.404;2022-12-07T00:03:38;2.47;;;1.40;;
65656;SDS011;57397;50.096;14.404;2022-12-07T00:06:04;1.30;;;1.05;;
65656;SDS011;57397;50.096;14.404;2022-12-07T00:08:31;1.60;;;1.40;;
65656;SDS011;57397;50.096;14.404;2022-12-07T00:11:04;1.77;;;1.25;;
65656;SDS011;57397;50.096;14.404;2022-12-07T00:13:31;1.70;;;1.30;;
65656;SDS011;57397;50.096;14.404;2022-12-07T00:16:04;1.75;;;1.20;;
65656;SDS011;57397;50.096;14.404;2022-12-07T00:18:31;2.42;;;1.40;;
65656;SDS011;57397;50.096;14.404;2022-12-07T00:21:00;2.42;;;1.30;;
65656;SDS011;57397;50.096;14.404;2022-12-07T00:23:29;2.30;;;1.38;;
65656;SDS011;57397;50.096;14.404;2022-12-07T00:25:55;1.95;;;1.58;;
65656;SDS011;57397;50.096;14.404;2022-12-07T00:28:20;1.63;;;1.25;;
65656;SDS011;57397;50.096;14.404;2022-12-07T00:30:46;1.98;;;1.40;;
65656;SDS011;57397;50.096;14.404;2022-12-07T00:33:11;1.73;;;1.33;;
65656;SDS011;57397;50.096;14.404;2022-12-07T00:35:37;2.08;;;1.33;;
65656;SDS011;57397;50.096;14.404;2022-12-07T00:38:02;2.20;;;1.58;;
65656;SDS011;57397;50.096;14.404;2022-12-07T00:40:27;2.00;;;1.30;;
65656;SDS011;57397;50.096;14.404;2022-12-07T00:42:53;2.28;;;1.60;;
65656;SDS011;57397;50.096;14.404;2022-12-07T00:45:18;1.77;;;1.38;;
65656;SDS011;57397;50.096;14.404;2022-12-07T00:47:44;1.92;;;1.30;;
65656;SDS011;57397;50.096;14.404;2022-12-07T00:50:09;1.48;;;1.27;;
65656;SDS011;57397;50.096;14.404;2022-12-07T00:52:35;2.30;;;1.50;;
65656;SDS011;57397;50.096;14.404;2022-12-07T00:55:00;1.88;;;1.45;;
65656;SDS011;57397;50.096;14.404;2022-12-07T00:57:26;1.52;;;1.30;;
65656;SDS011;57397;50.096;14.404;2022-12-07T00:59:51;2.03;;;1.50;;
65656;SDS011;57397;50.096;14.404;2022-12-07T01:02:20;1.70;;;1.40;;
65656;SDS011;57397;50.096;14.404;2022-12-07T01:04:46;1.95;;;1.60;;
65656;SDS011;57397;50.096;14.404;2022-12-07T01:07:11;1.77;;;1.40;;
65656;SDS011;57397;50.096;14.404;2022-12-07T01:09:37;2.45;;;1.50;;
65656;SDS011;57397;50.096;14.404;2022-12-07T01:12:02;2.17;;;1.70;;
65656;SDS011;57397;50.096;14.404;2022-12-07T01:14:28;2.65;;;1.50;;
65656;SDS011;57397;50.096;14.404;2022-12-07T01:16:53;2.55;;;1.40;;
65656;SDS011;57397;50.096;14.404;2022-12-07T01:19:19;2.35;;;1.48;;
65656;SDS011;57397;50.096;14.404;2022-12-07T01:21:44;1.42;;;1.30;;
65656;SDS011;57397;50.096;14.404;2022-12-07T01:24:10;2.45;;;1.60;;
65656;SDS011;57397;50.096;14.404;2022-12-07T01:26:36;2.25;;;1.30;;
65656;SDS011;57397;50.096;14.404;2022-12-07T01:29:02;2.50;;;1.50;;
65656;SDS011;57397;50.096;14.404;2022-12-07T01:31:27;2.35;;;1.50;;
65656;SDS011;57397;50.096;14.404;2022-12-07T01:33:54;2.20;;;1.40;;
65656;SDS011;57397;50.096;14.404;2022-12-07T01:36:30;1.83;;;1.58;;
65656;SDS011;57397;50.096;14.404;2022-12-07T01:38:58;2.00;;;1.30;;
65656;SDS011;57397;50.096;14.404;2022-12-07T01:41:27;2.65;;;1.65;;
65656;SDS011;57397;50.096;14.404;2022-12-07T01:46:31;2.35;;;1.63;;
65656;SDS011;57397;50.096;14.404;2022-12-07T01:48:57;1.80;;;1.30;;
65656;SDS011;57397;50.096;14.404;2022-12-07T01:51:22;1.75;;;1.27;;
65656;SDS011;57397;50.096;14.404;2022-12-07T01:53:48;1.98;;;1.50;;
65656;SDS011;57397;50.096;14.404;2022-12-07T01:56:15;2.00;;;1.50;;
65656;SDS011;57397;50.096;14.404;2022-12-07T01:58:42;1.90;;;1.60;;
65656;SDS011;57397;50.096;14.404;2022-12-07T02:01:08;2.35;;;1.63;;
65656;SDS011;57397;50.096;14.404;2022-12-07T02:03:41;2.08;;;1.52;;
65656;SDS011;57397;50.096;14.404;2022-12-07T02:06:08;1.70;;;1.40;;
65656;SDS011;57397;50.096;14.404;2022-12-07T02:08:35;2.40;;;1.70;;
65656;SDS011;57397;50.096;14.404;2022-12-07T02:11:01;2.30;;;1.50;;
65656;SDS011;57397;50.096;14.404;2022-12-07T02:13:29;1.95;;;1.50;;
65656;SDS011;57397;50.096;14.404;2022-12-07T02:16:03;2.30;;;1.60;;
65656;SDS011;57397;50.096;14.404;2022-12-07T02:21:20;2.38;;;1.70;;
65656;SDS011;57397;50.096;14.404;2022-12-07T02:24:16;2.40;;;1.60;;
65656;SDS011;57397;50.096;14.404;2022-12-07T02:26:56;1.77;;;1.40;;
65656;SDS011;57397;50.096;14.404;2022-12-07T02:29:33;2.33;;;1.70;;
65656;SDS011;57397;50.096;14.404;2022-12-07T02:35:01;2.10;;;1.60;;
65656;SDS011;57397;50.096;14.404;2022-12-07T02:42:37;1.85;;;1.60;;
65656;SDS011;57397;50.096;14.404;2022-12-07T02:45:07;1.80;;;1.42;;
65656;SDS011;57397;50.096;14.404;2022-12-07T02:47:33;2.17;;;1.70;;
65656;SDS011;57397;50.096;14.404;2022-12-07T02:50:02;2.00;;;1.67;;
65656;SDS011;57397;50.096;14.404;2022-12-07T02:52:29;2.33;;;1.80;;
65656;SDS011;57397;50.096;14.404;2022-12-07T02:54:55;2.17;;;1.52;;
65656;SDS011;57397;50.096;14.404;2022-12-07T03:00:09;2.80;;;1.80;;
65656;SDS011;57397;50.096;14.404;2022-12-07T03:08:02;2.05;;;1.75;;
65656;SDS011;57397;50.096;14.404;2022-12-07T03:10:40;2.55;;;1.95;;
65656;SDS011;57397;50.096;14.404;2022-12-07T03:18:26;2.67;;;2.10;;
65656;SDS011;57397;50.096;14.404;2022-12-07T03:20:55;2.33;;;1.77;;
65656;SDS011;57397;50.096;14.404;2022-12-07T03:23:22;2.30;;;1.83;;
65656;SDS011;57397;50.096;14.404;2022-12-07T03:25:52;2.00;;;1.70;;
65656;SDS011;57397;50.096;14.404;2022-12-07T03:28:21;2.15;;;1.83;;
65656;SDS011;57397;50.096;14.404;2022-12-07T03:30:56;1.95;;;1.58;;
65656;SDS011;57397;50.096;14.404;2022-12-07T03:33:33;2.40;;;1.90;;
65656;SDS011;57397;50.096;14.404;2022-12-07T03:36:10;2.45;;;1.90;;
65656;SDS011;57397;50.096;14.404;2022-12-07T03:38:59;2.70;;;1.90;;
65656;SDS011;57397;50.096;14.404;2022-12-07T03:41:39;2.28;;;1.98;;
65656;SDS011;57397;50.096;14.404;2022-12-07T03:44:04;2.95;;;2.13;;
65656;SDS011;57397;50.096;14.404;2022-12-07T03:46:36;2.33;;;2.05;;
65656;SDS011;57397;50.096;14.404;2022-12-07T03:49:11;3.30;;;1.80;;
65656;SDS011;57397;50.096;14.404;2022-12-07T03:54:27;2.53;;;1.80;;
65656;SDS011;57397;50.096;14.404;2022-12-07T03:56:55;2.42;;;1.90;;
65656;SDS011;57397;50.096;14.404;2022-12-07T03:59:22;2.50;;;2.10;;
65656;SDS011;57397;50.096;14.404;2022-12-07T04:01:55;3.40;;;2.30;;
65656;SDS011;57397;50.096;14.404;2022-12-07T04:04:26;3.25;;;2.00;;
65656;SDS011;57397;50.096;14.404;2022-12-07T04:06:52;2.80;;;2.00;;
65656;SDS011;57397;50.096;14.404;2022-12-07T04:09:17;2.65;;;2.00;;
65656;SDS011;57397;50.096;14.404;2022-12-07T04:11:42;2.90;;;2.10;;
65656;SDS011;57397;50.096;14.404;2022-12-07T04:14:08;2.50;;;1.88;;
65656;SDS011;57397;50.096;14.404;2022-12-07T04:19:14;2.80;;;2.10;;
65656;SDS011;57397;50.096;14.404;2022-12-07T04:21:40;2.70;;;2.05;;
65656;SDS011;57397;50.096;14.404;2022-12-07T04:24:05;2.97;;;2.15;;
65656;SDS011;57397;50.096;14.404;2022-12-07T04:26:31;2.58;;;1.75;;
65656;SDS011;57397;50.096;14.404;2022-12-07T04:28:56;2.95;;;1.90;;
65656;SDS011;57397;50.096;14.404;2022-12-07T04:31:22;2.50;;;1.92;;
65656;SDS011;57397;50.096;14.404;2022-12-07T04:33:48;2.58;;;1.95;;
65656;SDS011;57397;50.096;14.404;2022-12-07T04:36:13;2.85;;;2.15;;
65656;SDS011;57397;50.096;14.404;2022-12-07T04:38:39;2.65;;;2.00;;
65656;SDS011;57397;50.096;14.404;2022-12-07T04:41:05;2.60;;;1.88;;
65656;SDS011;57397;50.096;14.404;2022-12-07T04:43:31;2.70;;;1.98;;
65656;SDS011;57397;50.096;14.404;2022-12-07T04:45:57;2.42;;;1.80;;
65656;SDS011;57397;50.096;14.404;2022-12-07T04:48:22;2.33;;;1.80;;
65656;SDS011;57397;50.096;14.404;2022-12-07T04:50:48;2.70;;;1.88;;
65656;SDS011;57397;50.096;14.404;2022-12-07T04:53:14;2.80;;;1.90;;
65656;SDS011;57397;50.096;14.404;2022-12-07T04:55:40;2.30;;;1.70;;
65656;SDS011;57397;50.096;14.404;2022-12-07T04:58:05;3.35;;;1.80;;
65656;SDS011;57397;50.096;14.404;2022-12-07T05:00:30;4.07;;;2.17;;
65656;SDS011;57397;50.096;14.404;2022-12-07T05:02:56;2.20;;;1.63;;
65656;SDS011;57397;50.096;14.404;2022-12-07T05:05:21;2.30;;;1.90;;
65656;SDS011;57397;50.096;14.404;2022-12-07T05:07:47;2.08;;;1.75;;
65656;SDS011;57397;50.096;14.404;2022-12-07T05:10:12;1.90;;;1.55;;
65656;SDS011;57397;50.096;14.404;2022-12-07T05:12:37;2.72;;;1.88;;
65656;SDS011;57397;50.096;14.404;2022-12-07T05:15:03;2.40;;;1.80;;
65656;SDS011;57397;50.096;14.404;2022-12-07T05:17:29;2.60;;;1.73;;
65656;SDS011;57397;50.096;14.404;2022-12-07T05:19:55;2.78;;;1.80;;
65656;SDS011;57397;50.096;14.404;2022-12-07T05:22:20;2.40;;;1.90;;
65656;SDS011;57397;50.096;14.404;2022-12-07T05:24:46;2.60;;;1.80;;
65656;SDS011;57397;50.096;14.404;2022-12-07T05:27:11;2.25;;;1.70;;
65656;SDS011;57397;50.096;14.404;2022-12-07T05:29:37;2.53;;;1.90;;
65656;SDS011;57397;50.096;14.404;2022-12-07T05:32:02;1.80;;;1.60;;
65656;SDS011;57397;50.096;14.404;2022-12-07T05:34:28;2.70;;;1.88;;
65656;SDS011;57397;50.096;14.404;2022-12-07T05:36:53;2.53;;;1.63;;
65656;SDS011;57397;50.096;14.404;2022-12-07T05:39:19;2.25;;;1.67;;
65656;SDS011;57397;50.096;14.404;2022-12-07T05:41:44;2.35;;;1.80;;
65656;SDS011;57397;50.096;14.404;2022-12-07T05:44:28;2.30;;;1.75;;
65656;SDS011;57397;50.096;14.404;2022-12-07T05:46:54;2.28;;;1.70;;
65656;SDS011;57397;50.096;14.404;2022-12-07T05:49:19;2.60;;;2.00;;
65656;SDS011;57397;50.096;14.404;2022-12-07T05:51:45;3.00;;;1.80;;
65656;SDS011;57397;50.096;14.404;2022-12-07T05:54:10;2.63;;;1.70;;
65656;SDS011;57397;50.096;14.404;2022-12-07T05:56:35;2.33;;;1.60;;
65656;SDS011;57397;50.096;14.404;2022-12-07T05:59:01;3.03;;;1.85;;
65656;SDS011;57397;50.096;14.404;2022-12-07T06:01:45;2.72;;;1.98;;
65656;SDS011;57397;50.096;14.404;2022-12-07T06:04:10;3.83;;;2.33;;
65656;SDS011;57397;50.096;14.404;2022-12-07T06:06:36;3.63;;;2.30;;
65656;SDS011;57397;50.096;14.404;2022-12-07T06:09:02;4.40;;;2.78;;
65656;SDS011;57397;50.096;14.404;2022-12-07T06:11:28;4.55;;;2.80;;
65656;SDS011;57397;50.096;14.404;2022-12-07T06:14:12;3.50;;;2.38;;
65656;SDS011;57397;50.096;14.404;2022-12-07T06:16:37;4.57;;;3.03;;
65656;SDS011;57397;50.096;14.404;2022-12-07T06:19:03;5.80;;;3.00;;
65656;SDS011;57397;50.096;14.404;2022-12-07T06:21:28;5.00;;;2.88;;
65656;SDS011;57397;50.096;14.404;2022-12-07T06:23:54;4.35;;;2.63;;
65656;SDS011;57397;50.096;14.404;2022-12-07T06:26:20;3.92;;;2.70;;
65656;SDS011;57397;50.096;14.404;2022-12-07T06:28:45;4.57;;;2.63;;
65656;SDS011;57397;50.096;14.404;2022-12-07T06:31:11;3.20;;;2.17;;
65656;SDS011;57397;50.096;14.404;2022-12-07T06:33:36;2.83;;;2.20;;
65656;SDS011;57397;50.096;14.404;2022-12-07T06:36:02;3.28;;;2.30;;
65656;SDS011;57397;50.096;14.404;2022-12-07T06:38:27;3.72;;;2.30;;
65656;SDS011;57397;50.096;14.404;2022-12-07T06:40:53;3.67;;;2.30;;
65656;SDS011;57397;50.096;14.404;2022-12-07T06:43:19;3.50;;;2.50;;
65656;SDS011;57397;50.096;14.404;2022-12-07T06:45:44;3.78;;;1.80;;
65656;SDS011;57397;50.096;14.404;2022-12-07T06:48:10;3.00;;;2.20;;
65656;SDS011;57397;50.096;14.404;2022-12-07T06:50:35;3.05;;;2.15;;
65656;SDS011;57397;50.096;14.404;2022-12-07T06:53:01;3.15;;;2.10;;
65656;SDS011;57397;50.096;14.404;2022-12-07T06:55:26;2.90;;;2.10;;
65656;SDS011;57397;50.096;14.404;2022-12-07T06:57:52;3.05;;;2.00;;
65656;SDS011;57397;50.096;14.404;2022-12-07T07:00:17;2.97;;;2.00;;
65656;SDS011;57397;50.096;14.404;2022-12-07T07:02:43;2.78;;;2.20;;
65656;SDS011;57397;50.096;14.404;2022-12-07T07:05:09;2.83;;;2.00;;
65656;SDS011;57397;50.096;14.404;2022-12-07T07:07:34;2.92;;;1.77;;
65656;SDS011;57397;50.096;14.404;2022-12-07T07:10:02;2.30;;;1.80;;
65656;SDS011;57397;50.096;14.404;2022-12-07T07:12:28;2.92;;;1.80;;
65656;SDS011;57397;50.096;14.404;2022-12-07T07:14:53;2.45;;;1.90;;
65656;SDS011;57397;50.096;14.404;2022-12-07T07:17:19;2.67;;;2.00;;
65656;SDS011;57397;50.096;14.404;2022-12-07T07:19:45;2.78;;;2.00;;
65656;SDS011;57397;50.096;14.404;2022-12-07T07:22:10;3.20;;;2.03;;
65656;SDS011;57397;50.096;14.404;2022-12-07T07:24:35;3.78;;;2.35;;
65656;SDS011;57397;50.096;14.404;2022-12-07T07:27:01;3.00;;;2.10;;
65656;SDS011;57397;50.096;14.404;2022-12-07T07:29:26;3.35;;;2.20;;
65656;SDS011;57397;50.096;14.404;2022-12-07T07:31:52;3.45;;;2.17;;
65656;SDS011;57397;50.096;14.404;2022-12-07T07:34:17;3.25;;;2.42;;
65656;SDS011;57397;50.096;14.404;2022-12-07T07:36:43;3.15;;;2.40;;
65656;SDS011;57397;50.096;14.404;2022-12-07T07:39:09;3.80;;;2.40;;
65656;SDS011;57397;50.096;14.404;2022-12-07T07:41:37;3.35;;;2.42;;
65656;SDS011;57397;50.096;14.404;2022-12-07T07:44:03;3.45;;;2.35;;
65656;SDS011;57397;50.096;14.404;2022-12-07T07:46:28;4.00;;;2.15;;
65656;SDS011;57397;50.096;14.404;2022-12-07T07:48:54;3.53;;;2.33;;
65656;SDS011;57397;50.096;14.404;2022-12-07T07:51:19;3.75;;;2.50;;
65656;SDS011;57397;50.096;14.404;2022-12-07T07:53:45;3.97;;;2.70;;
65656;SDS011;57397;50.096;14.404;2022-12-07T07:56:11;4.03;;;2.47;;
65656;SDS011;57397;50.096;14.404;2022-12-07T07:58:36;3.13;;;2.30;;
65656;SDS011;57397;50.096;14.404;2022-12-07T08:01:04;2.97;;;2.30;;
65656;SDS011;57397;50.096;14.404;2022-12-07T08:03:33;3.13;;;2.28;;
65656;SDS011;57397;50.096;14.404;2022-12-07T08:05:58;3.50;;;2.38;;
65656;SDS011;57397;50.096;14.404;2022-12-07T08:08:24;3.25;;;2.38;;
65656;SDS011;57397;50.096;14.404;2022-12-07T08:10:49;3.00;;;2.10;;
65656;SDS011;57397;50.096;14.404;2022-12-07T08:13:15;3.67;;;2.20;;
65656;SDS011;57397;50.096;14.404;2022-12-07T08:15:45;2.90;;;2.17;;
65656;SDS011;57397;50.096;14.404;2022-12-07T08:18:12;3.47;;;2.20;;
65656;SDS011;57397;50.096;14.404;2022-12-07T08:20:38;4.28;;;2.35;;
65656;SDS011;57397;50.096;14.404;2022-12-07T08:23:04;3.55;;;2.53;;
65656;SDS011;57397;50.096;14.404;2022-12-07T08:25:31;3.10;;;2.20;;
65656;SDS011;57397;50.096;14.404;2022-12-07T08:27:56;3.08;;;2.25;;
65656;SDS011;57397;50.096;14.404;2022-12-07T08:30:22;3.38;;;2.38;;
65656;SDS011;57397;50.096;14.404;2022-12-07T08:32:48;3.80;;;2.30;;
65656;SDS011;57397;50.096;14.404;2022-12-07T08:35:14;3.53;;;2.50;;
65656;SDS011;57397;50.096;14.404;2022-12-07T08:37:40;3.38;;;2.30;;
65656;SDS011;57397;50.096;14.404;2022-12-07T08:40:06;3.30;;;2.25;;
65656;SDS011;57397;50.096;14.404;2022-12-07T08:42:32;3.00;;;2.10;;
65656;SDS011;57397;50.096;14.404;2022-12-07T08:45:08;3.42;;;2.40;;
65656;SDS011;57397;50.096;14.404;2022-12-07T08:47:36;3.25;;;2.25;;
65656;SDS011;57397;50.096;14.404;2022-12-07T08:50:03;4.25;;;2.90;;
65656;SDS011;57397;50.096;14.404;2022-12-07T08:52:30;4.30;;;2.65;;
65656;SDS011;57397;50.096;14.404;2022-12-07T08:54:55;3.70;;;2.63;;
65656;SDS011;57397;50.096;14.404;2022-12-07T08:57:21;4.45;;;2.85;;
65656;SDS011;57397;50.096;14.404;2022-12-07T08:59:47;3.80;;;2.70;;
65656;SDS011;57397;50.096;14.404;2022-12-07T09:02:12;3.63;;;2.70;;
65656;SDS011;57397;50.096;14.404;2022-12-07T09:04:38;4.25;;;2.70;;
65656;SDS011;57397;50.096;14.404;2022-12-07T09:07:03;3.92;;;2.75;;
65656;SDS011;57397;50.096;14.404;2022-12-07T09:09:32;4.50;;;2.78;;
65656;SDS011;57397;50.096;14.404;2022-12-07T09:11:57;4.60;;;3.08;;
65656;SDS011;57397;50.096;14.404;2022-12-07T09:14:23;5.13;;;3.13;;
65656;SDS011;57397;50.096;14.404;2022-12-07T09:16:48;4.05;;;2.85;;
65656;SDS011;57397;50.096;14.404;2022-12-07T09:19:14;4.65;;;3.20;;
65656;SDS011;57397;50.096;14.404;2022-12-07T09:21:39;4.15;;;2.85;;
65656;SDS011;57397;50.096;14.404;2022-12-07T09:24:05;4.65;;;2.95;;
65656;SDS011;57397;50.096;14.404;2022-12-07T09:26:31;3.80;;;2.50;;
65656;SDS011;57397;50.096;14.404;2022-12-07T09:28:56;4.45;;;2.92;;
65656;SDS011;57397;50.096;14.404;2022-12-07T09:31:21;3.85;;;2.63;;
65656;SDS011;57397;50.096;14.404;2022-12-07T09:33:47;3.42;;;2.60;;
65656;SDS011;57397;50.096;14.404;2022-12-07T09:36:18;3.70;;;2.70;;
65656;SDS011;57397;50.096;14.404;2022-12-07T09:38:43;3.58;;;2.53;;
65656;SDS011;57397;50.096;14.404;2022-12-07T09:41:09;4.50;;;2.88;;
65656;SDS011;57397;50.096;14.404;2022-12-07T09:43:35;4.28;;;2.90;;
65656;SDS011;57397;50.096;14.404;2022-12-07T09:46:01;3.88;;;2.78;;
65656;SDS011;57397;50.096;14.404;2022-12-07T09:48:31;3.65;;;2.78;;
65656;SDS011;57397;50.096;14.404;2022-12-07T09:50:58;4.38;;;2.90;;
65656;SDS011;57397;50.096;14.404;2022-12-07T09:53:28;3.80;;;2.70;;
65656;SDS011;57397;50.096;14.404;2022-12-07T09:55:55;4.03;;;2.83;;
65656;SDS011;57397;50.096;14.404;2022-12-07T09:58:25;4.22;;;2.88;;
65656;SDS011;57397;50.096;14.404;2022-12-07T10:00:57;4.07;;;2.80;;
65656;SDS011;57397;50.096;14.404;2022-12-07T10:03:26;4.72;;;3.10;;
65656;SDS011;57397;50.096;14.404;2022-12-07T10:05:52;3.78;;;2.60;;
65656;SDS011;57397;50.096;14.404;2022-12-07T10:08:18;4.03;;;2.92;;
65656;SDS011;57397;50.096;14.404;2022-12-07T10:10:44;3.80;;;2.42;;
65656;SDS011;57397;50.096;14.404;2022-12-07T10:13:12;4.22;;;2.65;;
65656;SDS011;57397;50.096;14.404;2022-12-07T10:15:40;5.45;;;3.03;;
65656;SDS011;57397;50.096;14.404;2022-12-07T10:18:27;3.90;;;2.65;;
65656;SDS011;57397;50.096;14.404;2022-12-07T10:21:16;3.72;;;2.65;;
65656;SDS011;57397;50.096;14.404;2022-12-07T10:23:59;3.60;;;2.45;;
65656;SDS011;57397;50.096;14.404;2022-12-07T10:26:33;3.55;;;2.38;;
65656;SDS011;57397;50.096;14.404;2022-12-07T10:29:00;3.90;;;2.78;;
65656;SDS011;57397;50.096;14.404;2022-12-07T10:31:38;5.03;;;2.95;;
65656;SDS011;57397;50.096;14.404;2022-12-07T10:34:12;3.83;;;2.65;;
65656;SDS011;57397;50.096;14.404;2022-12-07T10:36:51;4.50;;;2.80;;
65656;SDS011;57397;50.096;14.404;2022-12-07T10:39:18;3.92;;;2.83;;
65656;SDS011;57397;50.096;14.404;2022-12-07T10:42:03;4.03;;;2.75;;
65656;SDS011;57397;50.096;14.404;2022-12-07T10:44:32;3.85;;;2.60;;
65656;SDS011;57397;50.096;14.404;2022-12-07T10:49:40;3.80;;;2.72;;
65656;SDS011;57397;50.096;14.404;2022-12-07T10:52:29;3.90;;;2.90;;
65656;SDS011;57397;50.096;14.404;2022-12-07T11:07:05;3.88;;;2.80;;
65656;SDS011;57397;50.096;14.404;2022-12-07T11:09:52;4.03;;;2.83;;
65656;SDS011;57397;50.096;14.404;2022-12-07T11:12:34;4.47;;;2.88;;
65656;SDS011;57397;50.096;14.404;2022-12-07T11:15:23;5.32;;;3.00;;
65656;SDS011;57397;50.096;14.404;2022-12-07T11:17:56;4.50;;;3.30;;
65656;SDS011;57397;50.096;14.404;2022-12-07T11:20:33;5.85;;;2.95;;
65656;SDS011;57397;50.096;14.404;2022-12-07T11:25:37;4.10;;;2.65;;
65656;SDS011;57397;50.096;14.404;2022-12-07T11:33:47;4.05;;;2.67;;
65656;SDS011;57397;50.096;14.404;2022-12-07T11:36:33;5.22;;;3.15;;
65656;SDS011;57397;50.096;14.404;2022-12-07T11:41:54;3.60;;;2.50;;
65656;SDS011;57397;50.096;14.404;2022-12-07T11:44:31;4.50;;;2.85;;
65656;SDS011;57397;50.096;14.404;2022-12-07T11:47:04;3.97;;;2.92;;
65656;SDS011;57397;50.096;14.404;2022-12-07T11:52:12;4.25;;;2.70;;
65656;SDS011;57397;50.096;14.404;2022-12-07T11:54:44;3.78;;;2.92;;
65656;SDS011;57397;50.096;14.404;2022-12-07T11:57:19;4.05;;;2.80;;
65656;SDS011;57397;50.096;14.404;2022-12-07T11:59:49;5.07;;;3.33;;
65656;SDS011;57397;50.096;14.404;2022-12-07T12:04:58;4.82;;;3.20;;
65656;SDS011;57397;50.096;14.404;2022-12-07T12:07:27;5.47;;;3.17;;
65656;SDS011;57397;50.096;14.404;2022-12-07T12:15:33;4.45;;;3.10;;
65656;SDS011;57397;50.096;14.404;2022-12-07T12:20:50;3.70;;;3.00;;
65656;SDS011;57397;50.096;14.404;2022-12-07T12:25:47;4.20;;;3.20;;
65656;SDS011;57397;50.096;14.404;2022-12-07T12:28:29;4.68;;;3.05;;
65656;SDS011;57397;50.096;14.404;2022-12-07T12:33:30;3.63;;;2.80;;
65656;SDS011;57397;50.096;14.404;2022-12-07T12:36:17;4.00;;;2.85;;
65656;SDS011;57397;50.096;14.404;2022-12-07T12:44:01;4.38;;;3.08;;
65656;SDS011;57397;50.096;14.404;2022-12-07T12:54:39;4.22;;;2.92;;
65656;SDS011;57397;50.096;14.404;2022-12-07T12:57:27;4.63;;;2.95;;
65656;SDS011;57397;50.096;14.404;2022-12-07T13:02:29;4.22;;;2.95;;
65656;SDS011;57397;50.096;14.404;2022-12-07T13:10:21;6.55;;;3.63;;
65656;SDS011;57397;50.096;14.404;2022-12-07T13:15:40;6.43;;;3.50;;
65656;SDS011;57397;50.096;14.404;2022-12-07T13:20:56;5.65;;;3.28;;
65656;SDS011;57397;50.096;14.404;2022-12-07T13:26:04;5.80;;;3.33;;
65656;SDS011;57397;50.096;14.404;2022-12-07T13:28:40;5.05;;;3.40;;
65656;SDS011;57397;50.096;14.404;2022-12-07T13:33:57;4.95;;;3.40;;
65656;SDS011;57397;50.096;14.404;2022-12-07T13:36:23;5.80;;;3.30;;
65656;SDS011;57397;50.096;14.404;2022-12-07T13:38:54;5.30;;;3.47;;
65656;SDS011;57397;50.096;14.404;2022-12-07T13:41:22;4.47;;;3.00;;
65656;SDS011;57397;50.096;14.404;2022-12-07T13:49:31;4.20;;;2.80;;
65656;SDS011;57397;50.096;14.404;2022-12-07T13:54:43;5.00;;;3.10;;
65656;SDS011;57397;50.096;14.404;2022-12-07T13:57:11;3.95;;;2.58;;
65656;SDS011;57397;50.096;14.404;2022-12-07T13:59:36;4.43;;;2.95;;
65656;SDS011;57397;50.096;14.404;2022-12-07T14:02:16;4.07;;;3.10;;
65656;SDS011;57397;50.096;14.404;2022-12-07T14:04:46;5.50;;;3.03;;
65656;SDS011;57397;50.096;14.404;2022-12-07T14:07:24;4.97;;;2.95;;
65656;SDS011;57397;50.096;14.404;2022-12-07T14:09:55;5.78;;;3.33;;
65656;SDS011;57397;50.096;14.404;2022-12-07T14:12:24;5.85;;;3.40;;
65656;SDS011;57397;50.096;14.404;2022-12-07T14:14:50;5.78;;;3.30;;
65656;SDS011;57397;50.096;14.404;2022-12-07T14:17:20;4.13;;;3.13;;
65656;SDS011;57397;50.096;14.404;2022-12-07T14:24:50;5.20;;;3.42;;
65656;SDS011;57397;50.096;14.404;2022-12-07T14:27:23;4.93;;;3.17;;
65656;SDS011;57397;50.096;14.404;2022-12-07T14:29:50;5.00;;;3.17;;
65656;SDS011;57397;50.096;14.404;2022-12-07T14:34:57;4.50;;;2.83;;
65656;SDS011;57397;50.096;14.404;2022-12-07T14:37:24;4.68;;;3.10;;
65656;SDS011;57397;50.096;14.404;2022-12-07T14:39:50;4.68;;;3.10;;
65656;SDS011;57397;50.096;14.404;2022-12-07T14:42:15;3.70;;;2.63;;
65656;SDS011;57397;50.096;14.404;2022-12-07T14:44:41;4.40;;;2.83;;
65656;SDS011;57397;50.096;14.404;2022-12-07T14:47:09;5.25;;;3.28;;
65656;SDS011;57397;50.096;14.404;2022-12-07T14:49:35;4.15;;;2.72;;
65656;SDS011;57397;50.096;14.404;2022-12-07T14:52:00;4.72;;;2.92;;
65656;SDS011;57397;50.096;14.404;2022-12-07T14:54:26;3.95;;;2.50;;
65656;SDS011;57397;50.096;14.404;2022-12-07T14:56:52;4.53;;;2.80;;
65656;SDS011;57397;50.096;14.404;2022-12-07T14:59:18;4.28;;;2.85;;
65656;SDS011;57397;50.096;14.404;2022-12-07T15:01:44;4.40;;;3.15;;
65656;SDS011;57397;50.096;14.404;2022-12-07T15:04:09;4.28;;;3.33;;
65656;SDS011;57397;50.096;14.404;2022-12-07T15:06:35;3.60;;;2.80;;
65656;SDS011;57397;50.096;14.404;2022-12-07T15:09:00;4.28;;;3.00;;
65656;SDS011;57397;50.096;14.404;2022-12-07T15:11:26;4.13;;;2.72;;
65656;SDS011;57397;50.096;14.404;2022-12-07T15:13:52;4.13;;;2.90;;
65656;SDS011;57397;50.096;14.404;2022-12-07T15:16:33;5.20;;;2.95;;
65656;SDS011;57397;50.096;14.404;2022-12-07T15:18:59;4.13;;;2.55;;
65656;SDS011;57397;50.096;14.404;2022-12-07T15:21:25;3.67;;;2.75;;
65656;SDS011;57397;50.096;14.404;2022-12-07T15:23:50;3.47;;;2.53;;
65656;SDS011;57397;50.096;14.404;2022-12-07T15:26:16;3.97;;;2.85;;
65656;SDS011;57397;50.096;14.404;2022-12-07T15:28:42;4.60;;;2.80;;
65656;SDS011;57397;50.096;14.404;2022-12-07T15:31:14;3.90;;;2.60;;
65656;SDS011;57397;50.096;14.404;2022-12-07T15:33:40;4.95;;;3.17;;
65656;SDS011;57397;50.096;14.404;2022-12-07T15:36:06;3.88;;;2.83;;
65656;SDS011;57397;50.096;14.404;2022-12-07T15:38:31;4.13;;;2.92;;
65656;SDS011;57397;50.096;14.404;2022-12-07T15:40:57;4.65;;;3.10;;
65656;SDS011;57397;50.096;14.404;2022-12-07T15:43:23;4.63;;;3.17;;
65656;SDS011;57397;50.096;14.404;2022-12-07T15:46:06;5.07;;;3.20;;
65656;SDS011;57397;50.096;14.404;2022-12-07T15:48:32;5.13;;;3.30;;
65656;SDS011;57397;50.096;14.404;2022-12-07T15:51:07;4.85;;;3.33;;
65656;SDS011;57397;50.096;14.404;2022-12-07T15:53:34;5.20;;;3.28;;
65656;SDS011;57397;50.096;14.404;2022-12-07T15:56:00;5.65;;;3.35;;
65656;SDS011;57397;50.096;14.404;2022-12-07T15:58:25;6.20;;;3.55;;
65656;SDS011;57397;50.096;14.404;2022-12-07T16:00:51;5.22;;;3.15;;
65656;SDS011;57397;50.096;14.404;2022-12-07T16:03:17;6.20;;;3.83;;
65656;SDS011;57397;50.096;14.404;2022-12-07T16:05:48;5.10;;;3.20;;
65656;SDS011;57397;50.096;14.404;2022-12-07T16:08:14;4.80;;;3.22;;
65656;SDS011;57397;50.096;14.404;2022-12-07T16:10:39;5.13;;;3.00;;
65656;SDS011;57397;50.096;14.404;2022-12-07T16:13:08;6.18;;;3.20;;
65656;SDS011;57397;50.096;14.404;2022-12-07T16:15:39;5.20;;;3.40;;
65656;SDS011;57397;50.096;14.404;2022-12-07T16:18:08;6.45;;;3.42;;
65656;SDS011;57397;50.096;14.404;2022-12-07T16:20:33;6.03;;;3.60;;
65656;SDS011;57397;50.096;14.404;2022-12-07T16:22:59;7.53;;;4.55;;
65656;SDS011;57397;50.096;14.404;2022-12-07T16:25:24;9.43;;;5.03;;
65656;SDS011;57397;50.096;14.404;2022-12-07T16:27:50;8.38;;;4.68;;
65656;SDS011;57397;50.096;14.404;2022-12-07T16:30:17;8.25;;;4.65;;
65656;SDS011;57397;50.096;14.404;2022-12-07T16:32:42;8.63;;;5.00;;
65656;SDS011;57397;50.096;14.404;2022-12-07T16:35:08;9.85;;;5.03;;
65656;SDS011;57397;50.096;14.404;2022-12-07T16:37:34;7.25;;;4.57;;
65656;SDS011;57397;50.096;14.404;2022-12-07T16:39:59;9.43;;;5.25;;
65656;SDS011;57397;50.096;14.404;2022-12-07T16:42:25;8.50;;;4.60;;
65656;SDS011;57397;50.096;14.404;2022-12-07T16:44:51;7.97;;;4.50;;